Terminal Aerodrome Forecast
Issued by NWS

Current Version | Previous Version | Graphics & Text | Print | Product List | Glossary On
Versions: 1 2 3 4 5 6 7 8 9 10 11 12 13 14 15 16 17 18 19 20 21
000
FTUS41 KRNK 241140
TAFLWB
TAF
KLWB 241140Z 2412/2512 00000KT 5SM BR BKN110
     FM241300 VRB03KT 6SM -SHRA SCT050 OVC080
      TEMPO 2414/2418 3SM SHRA OVC040
     FM241900 21008G16KT P6SM BKN050 OVC120
     FM250000 21003KT P6SM OVC050=

USA.gov is the U.S. government's official web portal to all federal, state and local government web resources and services.